sensor_id;sensor_type;location;lat;lon;timestamp;P1;durP1;ratioP1;P2;durP2;ratioP2
483;SDS011;228;48.922;12.198;2023-09-19T04:02:44;2.80;;;2.47;;
483;SDS011;228;48.922;12.198;2023-09-19T04:05:11;2.37;;;2.13;;
483;SDS011;228;48.922;12.198;2023-09-19T04:07:37;4.87;;;2.17;;
483;SDS011;228;48.922;12.198;2023-09-19T04:10:04;3.17;;;2.10;;
483;SDS011;228;48.922;12.198;2023-09-19T04:12:31;4.50;;;2.03;;
483;SDS011;228;48.922;12.198;2023-09-19T04:14:57;3.57;;;2.13;;
483;SDS011;228;48.922;12.198;2023-09-19T04:17:23;2.50;;;2.20;;
483;SDS011;228;48.922;12.198;2023-09-19T04:19:49;3.20;;;2.07;;
483;SDS011;228;48.922;12.198;2023-09-19T04:22:15;2.83;;;2.03;;
483;SDS011;228;48.922;12.198;2023-09-19T04:24:41;3.80;;;1.87;;
483;SDS011;228;48.922;12.198;2023-09-19T04:27:08;4.03;;;2.20;;
483;SDS011;228;48.922;12.198;2023-09-19T04:29:35;3.50;;;1.80;;
483;SDS011;228;48.922;12.198;2023-09-19T04:32:01;2.00;;;1.73;;
483;SDS011;228;48.922;12.198;2023-09-19T04:34:29;2.00;;;1.77;;
483;SDS011;228;48.922;12.198;2023-09-19T04:36:55;3.53;;;1.70;;
483;SDS011;228;48.922;12.198;2023-09-19T04:39:23;1.60;;;1.50;;
483;SDS011;228;48.922;12.198;2023-09-19T04:41:51;3.17;;;1.87;;
483;SDS011;228;48.922;12.198;2023-09-19T04:44:19;2.00;;;1.90;;
483;SDS011;228;48.922;12.198;2023-09-19T04:46:46;3.43;;;1.77;;
483;SDS011;228;48.922;12.198;2023-09-19T04:49:12;5.87;;;2.10;;
483;SDS011;228;48.922;12.198;2023-09-19T04:51:38;3.57;;;1.57;;
483;SDS011;228;48.922;12.198;2023-09-19T04:54:05;4.77;;;1.80;;
483;SDS011;228;48.922;12.198;2023-09-19T04:56:32;2.33;;;1.77;;
483;SDS011;228;48.922;12.198;2023-09-19T04:58:59;2.70;;;2.20;;
483;SDS011;228;48.922;12.198;2023-09-19T05:01:25;3.20;;;1.90;;
483;SDS011;228;48.922;12.198;2023-09-19T05:03:52;3.70;;;1.73;;
483;SDS011;228;48.922;12.198;2023-09-19T05:06:21;2.93;;;1.90;;
483;SDS011;228;48.922;12.198;2023-09-19T05:08:48;4.77;;;2.23;;
483;SDS011;228;48.922;12.198;2023-09-19T05:11:18;1.93;;;1.73;;
483;SDS011;228;48.922;12.198;2023-09-19T05:13:45;3.23;;;2.10;;
483;SDS011;228;48.922;12.198;2023-09-19T05:16:11;3.53;;;1.90;;
483;SDS011;228;48.922;12.198;2023-09-19T05:18:37;3.53;;;1.80;;
483;SDS011;228;48.922;12.198;2023-09-19T05:21:03;2.10;;;1.87;;
483;SDS011;228;48.922;12.198;2023-09-19T05:23:29;3.57;;;1.70;;
483;SDS011;228;48.922;12.198;2023-09-19T05:25:56;2.30;;;1.80;;
483;SDS011;228;48.922;12.198;2023-09-19T05:28:25;2.23;;;1.80;;
483;SDS011;228;48.922;12.198;2023-09-19T05:30:52;2.47;;;1.90;;
483;SDS011;228;48.922;12.198;2023-09-19T05:33:19;2.90;;;1.80;;
483;SDS011;228;48.922;12.198;2023-09-19T05:35:45;3.53;;;1.83;;
483;SDS011;228;48.922;12.198;2023-09-19T05:38:13;2.00;;;1.70;;
483;SDS011;228;48.922;12.198;2023-09-19T05:40:41;2.47;;;2.00;;
483;SDS011;228;48.922;12.198;2023-09-19T05:43:08;3.10;;;2.00;;
483;SDS011;228;48.922;12.198;2023-09-19T05:45:34;2.70;;;1.83;;
483;SDS011;228;48.922;12.198;2023-09-19T05:48:08;2.57;;;1.97;;
483;SDS011;228;48.922;12.198;2023-09-19T05:50:39;1.73;;;1.63;;
483;SDS011;228;48.922;12.198;2023-09-19T05:53:05;1.90;;;1.80;;
483;SDS011;228;48.922;12.198;2023-09-19T05:55:31;2.57;;;1.90;;
483;SDS011;228;48.922;12.198;2023-09-19T05:57:58;1.73;;;1.50;;
483;SDS011;228;48.922;12.198;2023-09-19T06:00:25;3.80;;;2.00;;
483;SDS011;228;48.922;12.198;2023-09-19T06:02:53;2.57;;;1.90;;
483;SDS011;228;48.922;12.198;2023-09-19T06:05:20;2.07;;;1.80;;
483;SDS011;228;48.922;12.198;2023-09-19T06:07:46;3.00;;;2.03;;
483;SDS011;228;48.922;12.198;2023-09-19T06:10:13;3.27;;;2.00;;
483;SDS011;228;48.922;12.198;2023-09-19T06:12:40;3.10;;;2.30;;
483;SDS011;228;48.922;12.198;2023-09-19T06:15:10;3.27;;;2.17;;
483;SDS011;228;48.922;12.198;2023-09-19T06:17:47;3.47;;;2.17;;
483;SDS011;228;48.922;12.198;2023-09-19T06:20:14;2.97;;;2.40;;
483;SDS011;228;48.922;12.198;2023-09-19T06:22:42;3.80;;;2.20;;
483;SDS011;228;48.922;12.198;2023-09-19T06:25:09;3.43;;;2.40;;
483;SDS011;228;48.922;12.198;2023-09-19T06:27:40;2.90;;;2.40;;
483;SDS011;228;48.922;12.198;2023-09-19T06:30:10;2.57;;;2.23;;
483;SDS011;228;48.922;12.198;2023-09-19T06:32:40;3.30;;;2.33;;
483;SDS011;228;48.922;12.198;2023-09-19T06:35:09;4.00;;;2.27;;
483;SDS011;228;48.922;12.198;2023-09-19T06:37:46;3.60;;;2.40;;
483;SDS011;228;48.922;12.198;2023-09-19T06:40:29;3.00;;;2.30;;
483;SDS011;228;48.922;12.198;2023-09-19T06:42:56;3.43;;;2.50;;
483;SDS011;228;48.922;12.198;2023-09-19T06:46:18;2.63;;;2.30;;
483;SDS011;228;48.922;12.198;2023-09-19T06:48:50;3.87;;;2.40;;
483;SDS011;228;48.922;12.198;2023-09-19T06:51:30;3.17;;;2.40;;
483;SDS011;228;48.922;12.198;2023-09-19T06:55:04;3.63;;;2.70;;
483;SDS011;228;48.922;12.198;2023-09-19T06:58:03;3.85;;;2.72;;
483;SDS011;228;48.922;12.198;2023-09-19T07:01:11;3.65;;;2.72;;
483;SDS011;228;48.922;12.198;2023-09-19T07:04:16;2.95;;;2.58;;
483;SDS011;228;48.922;12.198;2023-09-19T07:06:53;3.22;;;2.65;;
483;SDS011;228;48.922;12.198;2023-09-19T07:09:19;3.70;;;2.58;;
483;SDS011;228;48.922;12.198;2023-09-19T07:11:48;3.47;;;2.55;;
483;SDS011;228;48.922;12.198;2023-09-19T07:14:16;4.28;;;2.65;;
483;SDS011;228;48.922;12.198;2023-09-19T07:16:42;4.40;;;2.67;;
483;SDS011;228;48.922;12.198;2023-09-19T07:19:10;3.47;;;2.55;;
483;SDS011;228;48.922;12.198;2023-09-19T07:21:44;3.72;;;2.20;;
483;SDS011;228;48.922;12.198;2023-09-19T07:24:27;2.72;;;2.47;;
483;SDS011;228;48.922;12.198;2023-09-19T07:27:05;4.70;;;2.83;;
483;SDS011;228;48.922;12.198;2023-09-19T07:30:04;2.97;;;2.70;;
483;SDS011;228;48.922;12.198;2023-09-19T07:32:54;3.00;;;2.60;;
483;SDS011;228;48.922;12.198;2023-09-19T07:35:52;5.47;;;2.78;;
483;SDS011;228;48.922;12.198;2023-09-19T07:38:44;3.78;;;2.97;;
483;SDS011;228;48.922;12.198;2023-09-19T07:41:10;3.60;;;2.95;;
483;SDS011;228;48.922;12.198;2023-09-19T07:43:36;3.60;;;3.30;;
483;SDS011;228;48.922;12.198;2023-09-19T07:46:05;3.97;;;3.00;;
483;SDS011;228;48.922;12.198;2023-09-19T07:48:33;3.47;;;2.83;;
483;SDS011;228;48.922;12.198;2023-09-19T07:51:07;5.25;;;2.72;;
483;SDS011;228;48.922;12.198;2023-09-19T07:53:39;3.45;;;3.00;;
483;SDS011;228;48.922;12.198;2023-09-19T07:56:05;3.72;;;2.42;;
483;SDS011;228;48.922;12.198;2023-09-19T07:58:35;3.83;;;2.58;;
483;SDS011;228;48.922;12.198;2023-09-19T08:01:06;4.15;;;2.80;;
483;SDS011;228;48.922;12.198;2023-09-19T08:03:36;2.95;;;2.70;;
483;SDS011;228;48.922;12.198;2023-09-19T08:06:09;3.80;;;2.50;;
483;SDS011;228;48.922;12.198;2023-09-19T08:08:35;2.95;;;2.30;;
483;SDS011;228;48.922;12.198;2023-09-19T08:11:05;6.00;;;3.08;;
483;SDS011;228;48.922;12.198;2023-09-19T08:13:39;2.55;;;2.20;;
483;SDS011;228;48.922;12.198;2023-09-19T08:16:19;4.75;;;2.58;;
483;SDS011;228;48.922;12.198;2023-09-19T08:18:48;2.88;;;2.05;;
483;SDS011;228;48.922;12.198;2023-09-19T08:21:18;2.65;;;2.17;;
483;SDS011;228;48.922;12.198;2023-09-19T08:23:50;3.67;;;2.13;;
483;SDS011;228;48.922;12.198;2023-09-19T08:26:16;3.45;;;1.92;;
483;SDS011;228;48.922;12.198;2023-09-19T08:28:45;3.83;;;2.08;;
483;SDS011;228;48.922;12.198;2023-09-19T08:31:11;4.05;;;2.17;;
483;SDS011;228;48.922;12.198;2023-09-19T08:33:37;2.30;;;2.00;;
483;SDS011;228;48.922;12.198;2023-09-19T08:36:06;4.25;;;2.10;;
483;SDS011;228;48.922;12.198;2023-09-19T08:38:36;3.10;;;1.80;;
483;SDS011;228;48.922;12.198;2023-09-19T08:41:07;2.17;;;1.58;;
483;SDS011;228;48.922;12.198;2023-09-19T08:43:34;3.15;;;1.60;;
483;SDS011;228;48.922;12.198;2023-09-19T08:46:11;3.17;;;1.70;;
483;SDS011;228;48.922;12.198;2023-09-19T08:48:46;2.10;;;1.73;;
483;SDS011;228;48.922;12.198;2023-09-19T08:51:33;3.60;;;1.52;;
483;SDS011;228;48.922;12.198;2023-09-19T08:54:11;1.80;;;1.50;;
483;SDS011;228;48.922;12.198;2023-09-19T08:56:47;3.70;;;1.70;;
483;SDS011;228;48.922;12.198;2023-09-19T08:59:15;2.00;;;1.50;;
483;SDS011;228;48.922;12.198;2023-09-19T09:01:42;1.83;;;1.48;;
483;SDS011;228;48.922;12.198;2023-09-19T09:04:09;2.83;;;1.50;;
483;SDS011;228;48.922;12.198;2023-09-19T09:06:38;2.42;;;1.67;;
483;SDS011;228;48.922;12.198;2023-09-19T09:09:06;1.80;;;1.60;;
483;SDS011;228;48.922;12.198;2023-09-19T09:11:34;1.75;;;1.60;;
483;SDS011;228;48.922;12.198;2023-09-19T09:14:05;2.28;;;1.70;;
483;SDS011;228;48.922;12.198;2023-09-19T09:16:35;1.60;;;1.50;;
483;SDS011;228;48.922;12.198;2023-09-19T09:19:01;2.95;;;1.67;;
483;SDS011;228;48.922;12.198;2023-09-19T09:21:27;5.78;;;1.60;;
483;SDS011;228;48.922;12.198;2023-09-19T09:23:54;2.30;;;1.50;;
483;SDS011;228;48.922;12.198;2023-09-19T09:26:58;2.17;;;1.50;;
483;SDS011;228;48.922;12.198;2023-09-19T09:29:29;2.80;;;1.58;;
483;SDS011;228;48.922;12.198;2023-09-19T09:32:28;2.60;;;1.45;;
483;SDS011;228;48.922;12.198;2023-09-19T09:34:59;1.60;;;1.40;;
483;SDS011;228;48.922;12.198;2023-09-19T09:37:27;1.65;;;1.50;;
483;SDS011;228;48.922;12.198;2023-09-19T09:39:58;3.00;;;1.50;;
483;SDS011;228;48.922;12.198;2023-09-19T09:42:45;2.58;;;1.58;;
483;SDS011;228;48.922;12.198;2023-09-19T09:45:18;1.63;;;1.30;;
483;SDS011;228;48.922;12.198;2023-09-19T09:47:58;1.80;;;1.52;;
483;SDS011;228;48.922;12.198;2023-09-19T09:50:35;4.53;;;1.67;;
483;SDS011;228;48.922;12.198;2023-09-19T09:53:29;1.40;;;1.30;;
483;SDS011;228;48.922;12.198;2023-09-19T09:56:09;1.55;;;1.45;;
483;SDS011;228;48.922;12.198;2023-09-19T09:58:58;1.98;;;1.77;;
483;SDS011;228;48.922;12.198;2023-09-19T10:01:24;3.27;;;1.50;;
483;SDS011;228;48.922;12.198;2023-09-19T10:03:56;4.07;;;1.47;;
483;SDS011;228;48.922;12.198;2023-09-19T10:06:23;2.57;;;1.83;;
483;SDS011;228;48.922;12.198;2023-09-19T10:09:06;3.30;;;1.70;;
483;SDS011;228;48.922;12.198;2023-09-19T10:11:48;1.70;;;1.60;;
483;SDS011;228;48.922;12.198;2023-09-19T10:14:24;3.07;;;1.50;;
483;SDS011;228;48.922;12.198;2023-09-19T10:17:04;2.53;;;1.60;;
483;SDS011;228;48.922;12.198;2023-09-19T10:19:37;3.50;;;2.00;;
483;SDS011;228;48.922;12.198;2023-09-19T10:22:04;3.17;;;1.73;;
483;SDS011;228;48.922;12.198;2023-09-19T10:24:36;2.17;;;1.73;;
483;SDS011;228;48.922;12.198;2023-09-19T10:27:05;2.00;;;1.57;;
483;SDS011;228;48.922;12.198;2023-09-19T10:29:38;2.20;;;1.70;;
483;SDS011;228;48.922;12.198;2023-09-19T10:32:11;1.67;;;1.57;;
483;SDS011;228;48.922;12.198;2023-09-19T10:34:47;2.53;;;1.50;;
483;SDS011;228;48.922;12.198;2023-09-19T10:37:18;2.70;;;1.50;;
483;SDS011;228;48.922;12.198;2023-09-19T10:39:50;2.38;;;1.38;;
483;SDS011;228;48.922;12.198;2023-09-19T10:42:27;2.42;;;1.58;;
483;SDS011;228;48.922;12.198;2023-09-19T10:44:59;1.50;;;1.40;;
483;SDS011;228;48.922;12.198;2023-09-19T10:47:40;1.52;;;1.30;;
483;SDS011;228;48.922;12.198;2023-09-19T10:50:18;2.90;;;1.70;;
483;SDS011;228;48.922;12.198;2023-09-19T10:52:51;1.50;;;1.27;;
483;SDS011;228;48.922;12.198;2023-09-19T10:55:28;1.70;;;1.60;;
483;SDS011;228;48.922;12.198;2023-09-19T10:57:59;3.03;;;1.30;;
483;SDS011;228;48.922;12.198;2023-09-19T11:00:52;2.08;;;1.65;;
483;SDS011;228;48.922;12.198;2023-09-19T11:03:28;2.83;;;1.45;;
483;SDS011;228;48.922;12.198;2023-09-19T11:08:50;1.85;;;1.50;;
483;SDS011;228;48.922;12.198;2023-09-19T11:33:23;1.85;;;1.58;;
483;SDS011;228;48.922;12.198;2023-09-19T11:35:59;2.22;;;1.60;;
483;SDS011;228;48.922;12.198;2023-09-19T11:43:47;3.95;;;1.70;;
483;SDS011;228;48.922;12.198;2023-09-19T11:46:16;1.70;;;1.60;;
483;SDS011;228;48.922;12.198;2023-09-19T11:48:50;2.72;;;1.55;;
483;SDS011;228;48.922;12.198;2023-09-19T11:51:19;4.28;;;2.15;;
483;SDS011;228;48.922;12.198;2023-09-19T11:53:55;1.90;;;1.80;;
483;SDS011;228;48.922;12.198;2023-09-19T11:56:25;2.33;;;1.90;;
483;SDS011;228;48.922;12.198;2023-09-19T11:58:57;2.00;;;1.83;;
483;SDS011;228;48.922;12.198;2023-09-19T12:01:31;3.25;;;1.60;;
483;SDS011;228;48.922;12.198;2023-09-19T12:03:59;2.60;;;1.63;;
483;SDS011;228;48.922;12.198;2023-09-19T12:06:30;1.70;;;1.50;;
483;SDS011;228;48.922;12.198;2023-09-19T12:09:00;1.70;;;1.60;;
483;SDS011;228;48.922;12.198;2023-09-19T12:11:32;3.25;;;1.50;;
483;SDS011;228;48.922;12.198;2023-09-19T12:14:21;3.17;;;1.70;;
483;SDS011;228;48.922;12.198;2023-09-19T12:16:54;1.73;;;1.60;;
483;SDS011;228;48.922;12.198;2023-09-19T12:19:21;1.60;;;1.50;;
483;SDS011;228;48.922;12.198;2023-09-19T12:21:59;2.42;;;1.40;;
483;SDS011;228;48.922;12.198;2023-09-19T12:24:34;1.58;;;1.45;;
483;SDS011;228;48.922;12.198;2023-09-19T12:27:04;1.60;;;1.42;;
483;SDS011;228;48.922;12.198;2023-09-19T12:29:42;1.50;;;1.40;;
483;SDS011;228;48.922;12.198;2023-09-19T12:32:36;3.47;;;1.70;;
483;SDS011;228;48.922;12.198;2023-09-19T12:35:08;2.40;;;1.70;;
483;SDS011;228;48.922;12.198;2023-09-19T12:37:43;3.28;;;1.60;;
483;SDS011;228;48.922;12.198;2023-09-19T12:40:18;2.28;;;1.67;;
483;SDS011;228;48.922;12.198;2023-09-19T12:42:54;1.60;;;1.40;;
483;SDS011;228;48.922;12.198;2023-09-19T12:45:21;1.77;;;1.60;;
483;SDS011;228;48.922;12.198;2023-09-19T12:53:33;1.60;;;1.40;;
483;SDS011;228;48.922;12.198;2023-09-19T12:56:07;1.40;;;1.30;;
483;SDS011;228;48.922;12.198;2023-09-19T12:58:53;1.75;;;1.35;;
483;SDS011;228;48.922;12.198;2023-09-19T13:01:25;1.35;;;1.25;;
483;SDS011;228;48.922;12.198;2023-09-19T13:06:46;1.48;;;1.38;;
483;SDS011;228;48.922;12.198;2023-09-19T13:09:14;1.95;;;1.25;;
483;SDS011;228;48.922;12.198;2023-09-19T13:11:45;1.85;;;1.40;;
483;SDS011;228;48.922;12.198;2023-09-19T13:14:23;2.10;;;1.40;;
483;SDS011;228;48.922;12.198;2023-09-19T13:16:57;1.65;;;1.25;;
483;SDS011;228;48.922;12.198;2023-09-19T13:19:43;3.97;;;1.38;;
483;SDS011;228;48.922;12.198;2023-09-19T13:25:17;1.50;;;1.30;;
483;SDS011;228;48.922;12.198;2023-09-19T13:27:45;1.70;;;1.40;;
483;SDS011;228;48.922;12.198;2023-09-19T13:30:13;2.03;;;1.60;;
483;SDS011;228;48.922;12.198;2023-09-19T13:32:40;1.33;;;1.23;;
483;SDS011;228;48.922;12.198;2023-09-19T13:35:08;1.42;;;1.33;;
483;SDS011;228;48.922;12.198;2023-09-19T13:37:35;1.40;;;1.30;;
483;SDS011;228;48.922;12.198;2023-09-19T13:40:04;1.45;;;1.20;;
483;SDS011;228;48.922;12.198;2023-09-19T13:42:31;1.42;;;1.33;;
483;SDS011;228;48.922;12.198;2023-09-19T13:44:57;3.10;;;1.60;;
483;SDS011;228;48.922;12.198;2023-09-19T13:47:23;1.73;;;1.20;;
483;SDS011;228;48.922;12.198;2023-09-19T13:49:52;1.65;;;1.50;;
483;SDS011;228;48.922;12.198;2023-09-19T13:52:21;2.25;;;1.50;;
483;SDS011;228;48.922;12.198;2023-09-19T13:54:49;1.48;;;1.30;;
483;SDS011;228;48.922;12.198;2023-09-19T13:57:16;2.33;;;1.60;;
483;SDS011;228;48.922;12.198;2023-09-19T13:59:42;1.63;;;1.30;;
483;SDS011;228;48.922;12.198;2023-09-19T14:02:08;1.60;;;1.50;;
483;SDS011;228;48.922;12.198;2023-09-19T14:04:34;1.40;;;1.30;;
483;SDS011;228;48.922;12.198;2023-09-19T14:07:01;2.80;;;1.60;;
483;SDS011;228;48.922;12.198;2023-09-19T14:09:27;1.73;;;1.50;;
483;SDS011;228;48.922;12.198;2023-09-19T14:11:53;1.63;;;1.52;;
483;SDS011;228;48.922;12.198;2023-09-19T14:14:19;1.75;;;1.52;;
483;SDS011;228;48.922;12.198;2023-09-19T14:16:46;1.42;;;1.33;;
483;SDS011;228;48.922;12.198;2023-09-19T14:19:15;1.67;;;1.58;;
483;SDS011;228;48.922;12.198;2023-09-19T14:21:42;2.30;;;1.63;;
483;SDS011;228;48.922;12.198;2023-09-19T14:24:08;1.60;;;1.50;;
483;SDS011;228;48.922;12.198;2023-09-19T14:26:38;2.08;;;1.88;;
483;SDS011;228;48.922;12.198;2023-09-19T14:29:04;2.25;;;1.60;;
483;SDS011;228;48.922;12.198;2023-09-19T14:31:36;2.25;;;1.58;;
483;SDS011;228;48.922;12.198;2023-09-19T14:34:03;3.55;;;1.85;;
483;SDS011;228;48.922;12.198;2023-09-19T14:36:30;4.15;;;1.52;;
483;SDS011;228;48.922;12.198;2023-09-19T14:38:57;3.28;;;1.63;;
483;SDS011;228;48.922;12.198;2023-09-19T14:41:24;2.75;;;1.50;;
483;SDS011;228;48.922;12.198;2023-09-19T14:43:52;1.70;;;1.60;;
483;SDS011;228;48.922;12.198;2023-09-19T14:46:20;1.60;;;1.50;;
483;SDS011;228;48.922;12.198;2023-09-19T14:48:46;1.83;;;1.60;;
483;SDS011;228;48.922;12.198;2023-09-19T14:51:13;2.58;;;1.60;;
483;SDS011;228;48.922;12.198;2023-09-19T14:53:39;4.32;;;1.73;;
483;SDS011;228;48.922;12.198;2023-09-19T14:56:09;1.70;;;1.60;;
483;SDS011;228;48.922;12.198;2023-09-19T14:58:36;1.67;;;1.52;;
483;SDS011;228;48.922;12.198;2023-09-19T15:01:11;2.25;;;1.50;;
483;SDS011;228;48.922;12.198;2023-09-19T15:03:38;2.30;;;1.60;;
483;SDS011;228;48.922;12.198;2023-09-19T15:06:09;2.67;;;1.67;;
483;SDS011;228;48.922;12.198;2023-09-19T15:08:45;1.60;;;1.50;;
483;SDS011;228;48.922;12.198;2023-09-19T15:11:13;2.17;;;1.60;;
483;SDS011;228;48.922;12.198;2023-09-19T15:13:42;3.00;;;1.70;;
483;SDS011;228;48.922;12.198;2023-09-19T15:16:09;2.25;;;1.73;;
483;SDS011;228;48.922;12.198;2023-09-19T15:18:36;1.88;;;1.67;;
483;SDS011;228;48.922;12.198;2023-09-19T15:21:03;2.45;;;1.50;;
483;SDS011;228;48.922;12.198;2023-09-19T15:23:30;2.28;;;1.65;;
483;SDS011;228;48.922;12.198;2023-09-19T15:26:02;1.65;;;1.50;;
483;SDS011;228;48.922;12.198;2023-09-19T15:28:33;3.28;;;1.85;;
483;SDS011;228;48.922;12.198;2023-09-19T15:31:10;2.30;;;1.70;;
483;SDS011;228;48.922;12.198;2023-09-19T15:33:37;2.22;;;1.38;;
483;SDS011;228;48.922;12.198;2023-09-19T15:36:07;3.20;;;1.60;;
483;SDS011;228;48.922;12.198;2023-09-19T15:41:29;1.80;;;1.50;;
483;SDS011;228;48.922;12.198;2023-09-19T15:44:00;1.50;;;1.40;;
483;SDS011;228;48.922;12.198;2023-09-19T15:46:27;3.85;;;1.88;;
483;SDS011;228;48.922;12.198;2023-09-19T15:48:55;1.83;;;1.40;;
483;SDS011;228;48.922;12.198;2023-09-19T15:51:22;1.98;;;1.63;;
483;SDS011;228;48.922;12.198;2023-09-19T15:53:50;1.63;;;1.40;;
483;SDS011;228;48.922;12.198;2023-09-19T15:56:17;2.22;;;1.40;;
483;SDS011;228;48.922;12.198;2023-09-19T15:58:47;2.58;;;1.60;;
483;SDS011;228;48.922;12.198;2023-09-19T16:01:13;1.60;;;1.50;;
483;SDS011;228;48.922;12.198;2023-09-19T16:03:44;1.60;;;1.50;;
483;SDS011;228;48.922;12.198;2023-09-19T16:06:15;1.60;;;1.50;;
483;SDS011;228;48.922;12.198;2023-09-19T16:08:44;1.88;;;1.58;;
483;SDS011;228;48.922;12.198;2023-09-19T16:11:12;2.20;;;1.60;;
483;SDS011;228;48.922;12.198;2023-09-19T16:13:39;2.50;;;1.60;;
483;SDS011;228;48.922;12.198;2023-09-19T16:16:09;1.52;;;1.40;;
483;SDS011;228;48.922;12.198;2023-09-19T16:18:47;2.00;;;1.73;;
483;SDS011;228;48.922;12.198;2023-09-19T16:21:14;3.22;;;1.70;;
483;SDS011;228;48.922;12.198;2023-09-19T16:23:44;1.77;;;1.65;;
483;SDS011;228;48.922;12.198;2023-09-19T16:26:15;2.08;;;1.38;;
483;SDS011;228;48.922;12.198;2023-09-19T16:28:44;1.60;;;1.50;;
483;SDS011;228;48.922;12.198;2023-09-19T16:31:11;2.05;;;1.60;;
483;SDS011;228;48.922;12.198;2023-09-19T16:33:40;1.73;;;1.63;;
483;SDS011;228;48.922;12.198;2023-09-19T16:38:47;2.00;;;1.42;;
483;SDS011;228;48.922;12.198;2023-09-19T16:41:13;1.60;;;1.50;;
483;SDS011;228;48.922;12.198;2023-09-19T16:43:40;2.40;;;1.65;;
483;SDS011;228;48.922;12.198;2023-09-19T16:46:10;2.30;;;1.38;;
483;SDS011;228;48.922;12.198;2023-09-19T16:48:38;1.73;;;1.58;;
483;SDS011;228;48.922;12.198;2023-09-19T16:51:06;2.33;;;1.65;;
483;SDS011;228;48.922;12.198;2023-09-19T16:54:57;1.67;;;1.48;;
483;SDS011;228;48.922;12.198;2023-09-19T17:15:58;2.38;;;1.50;;
483;SDS011;228;48.922;12.198;2023-09-19T17:18:26;2.67;;;1.55;;
483;SDS011;228;48.922;12.198;2023-09-19T17:20:53;2.92;;;1.63;;
483;SDS011;228;48.922;12.198;2023-09-19T17:23:38;1.98;;;1.70;;
483;SDS011;228;48.922;12.198;2023-09-19T17:26:14;2.55;;;1.50;;
483;SDS011;228;48.922;12.198;2023-09-19T17:28:43;2.03;;;1.83;;
483;SDS011;228;48.922;12.198;2023-09-19T17:31:13;2.78;;;1.95;;
483;SDS011;228;48.922;12.198;2023-09-19T17:33:47;1.95;;;1.80;;
483;SDS011;228;48.922;12.198;2023-09-19T17:36:15;3.47;;;1.73;;
483;SDS011;228;48.922;12.198;2023-09-19T17:38:49;2.75;;;1.88;;
483;SDS011;228;48.922;12.198;2023-09-19T17:41:18;2.67;;;1.88;;
483;SDS011;228;48.922;12.198;2023-09-19T17:43:51;4.22;;;1.70;;
483;SDS011;228;48.922;12.198;2023-09-19T17:46:20;2.60;;;2.05;;
483;SDS011;228;48.922;12.198;2023-09-19T17:48:52;3.38;;;2.08;;
483;SDS011;228;48.922;12.198;2023-09-19T17:51:19;2.78;;;2.00;;
483;SDS011;228;48.922;12.198;2023-09-19T17:53:46;2.58;;;2.35;;
483;SDS011;228;48.922;12.198;2023-09-19T17:56:14;2.37;;;2.10;;
483;SDS011;228;48.922;12.198;2023-09-19T17:58:47;2.37;;;2.17;;
483;SDS011;228;48.922;12.198;2023-09-19T18:01:30;2.30;;;2.10;;
483;SDS011;228;48.922;12.198;2023-09-19T18:04:00;2.10;;;1.90;;
483;SDS011;228;48.922;12.198;2023-09-19T18:06:30;2.23;;;2.03;;
483;SDS011;228;48.922;12.198;2023-09-19T18:09:09;2.67;;;2.00;;
483;SDS011;228;48.922;12.198;2023-09-19T18:11:37;2.43;;;2.00;;
483;SDS011;228;48.922;12.198;2023-09-19T18:14:03;3.50;;;2.40;;
483;SDS011;228;48.922;12.198;2023-09-19T18:16:30;2.07;;;1.97;;
483;SDS011;228;48.922;12.198;2023-09-19T18:18:57;3.57;;;2.20;;
483;SDS011;228;48.922;12.198;2023-09-19T18:21:25;3.20;;;2.30;;
483;SDS011;228;48.922;12.198;2023-09-19T18:23:56;2.27;;;2.00;;
483;SDS011;228;48.922;12.198;2023-09-19T18:26:24;2.63;;;2.30;;
483;SDS011;228;48.922;12.198;2023-09-19T18:28:51;2.70;;;2.50;;
483;SDS011;228;48.922;12.198;2023-09-19T18:31:17;3.63;;;1.83;;
483;SDS011;228;48.922;12.198;2023-09-19T18:33:43;2.23;;;1.83;;
483;SDS011;228;48.922;12.198;2023-09-19T18:36:09;2.57;;;1.70;;
483;SDS011;228;48.922;12.198;2023-09-19T18:38:39;1.80;;;1.57;;
483;SDS011;228;48.922;12.198;2023-09-19T18:41:09;1.83;;;1.73;;
483;SDS011;228;48.922;12.198;2023-09-19T18:43:36;1.93;;;1.50;;
483;SDS011;228;48.922;12.198;2023-09-19T18:46:06;2.13;;;1.90;;
483;SDS011;228;48.922;12.198;2023-09-19T18:48:42;2.90;;;1.57;;
483;SDS011;228;48.922;12.198;2023-09-19T18:51:10;1.90;;;1.70;;
483;SDS011;228;48.922;12.198;2023-09-19T18:53:49;2.33;;;1.80;;
483;SDS011;228;48.922;12.198;2023-09-19T18:56:16;1.93;;;1.67;;
483;SDS011;228;48.922;12.198;2023-09-19T18:58:52;1.93;;;1.40;;
483;SDS011;228;48.922;12.198;2023-09-19T19:01:35;2.23;;;1.60;;
483;SDS011;228;48.922;12.198;2023-09-19T19:04:09;4.83;;;1.97;;
483;SDS011;228;48.922;12.198;2023-09-19T19:06:49;2.57;;;1.87;;
483;SDS011;228;48.922;12.198;2023-09-19T19:09:19;1.70;;;1.57;;
483;SDS011;228;48.922;12.198;2023-09-19T19:11:46;2.73;;;1.80;;
483;SDS011;228;48.922;12.198;2023-09-19T19:14:15;2.10;;;1.90;;
483;SDS011;228;48.922;12.198;2023-09-19T19:16:51;3.63;;;2.17;;
483;SDS011;228;48.922;12.198;2023-09-19T19:19:19;2.97;;;2.10;;
483;SDS011;228;48.922;12.198;2023-09-19T19:21:55;2.90;;;1.60;;
483;SDS011;228;48.922;12.198;2023-09-19T19:24:21;2.47;;;1.90;;
483;SDS011;228;48.922;12.198;2023-09-19T19:26:48;2.50;;;2.30;;
483;SDS011;228;48.922;12.198;2023-09-19T19:29:14;2.47;;;1.87;;
483;SDS011;228;48.922;12.198;2023-09-19T19:31:41;3.57;;;1.90;;
483;SDS011;228;48.922;12.198;2023-09-19T19:34:07;2.87;;;2.13;;
483;SDS011;228;48.922;12.198;2023-09-19T19:36:33;2.60;;;2.00;;
483;SDS011;228;48.922;12.198;2023-09-19T19:38:59;2.87;;;1.90;;
483;SDS011;228;48.922;12.198;2023-09-19T19:41:26;2.37;;;1.90;;
483;SDS011;228;48.922;12.198;2023-09-19T19:43:52;2.67;;;1.83;;
483;SDS011;228;48.922;12.198;2023-09-19T19:46:18;3.53;;;2.10;;
483;SDS011;228;48.922;12.198;2023-09-19T19:48:48;3.83;;;2.00;;
483;SDS011;228;48.922;12.198;2023-09-19T19:51:17;2.37;;;2.17;;
483;SDS011;228;48.922;12.198;2023-09-19T19:53:43;2.50;;;2.30;;
483;SDS011;228;48.922;12.198;2023-09-19T19:56:09;2.70;;;2.10;;
483;SDS011;228;48.922;12.198;2023-09-19T19:58:35;2.67;;;2.03;;
483;SDS011;228;48.922;12.198;2023-09-19T20:01:01;4.70;;;2.50;;
483;SDS011;228;48.922;12.198;2023-09-19T20:03:32;4.03;;;2.30;;
483;SDS011;228;48.922;12.198;2023-09-19T20:06:00;3.20;;;2.30;;
483;SDS011;228;48.922;12.198;2023-09-19T20:08:28;2.40;;;2.13;;
483;SDS011;228;48.922;12.198;2023-09-19T20:11:01;2.90;;;2.40;;
483;SDS011;228;48.922;12.198;2023-09-19T20:13:29;2.50;;;2.30;;
483;SDS011;228;48.922;12.198;2023-09-19T20:15:56;3.07;;;2.50;;
483;SDS011;228;48.922;12.198;2023-09-19T20:18:23;4.03;;;2.13;;
483;SDS011;228;48.922;12.198;2023-09-19T20:20:50;3.13;;;2.40;;
483;SDS011;228;48.922;12.198;2023-09-19T20:23:20;2.67;;;2.47;;
483;SDS011;228;48.922;12.198;2023-09-19T20:25:46;2.40;;;2.20;;
483;SDS011;228;48.922;12.198;2023-09-19T20:28:13;2.40;;;2.20;;
483;SDS011;228;48.922;12.198;2023-09-19T20:30:42;4.53;;;2.60;;
483;SDS011;228;48.922;12.198;2023-09-19T20:33:09;2.97;;;2.23;;
483;SDS011;228;48.922;12.198;2023-09-19T20:35:38;3.47;;;2.50;;
483;SDS011;228;48.922;12.198;2023-09-19T20:38:05;3.37;;;2.40;;
483;SDS011;228;48.922;12.198;2023-09-19T20:40:31;2.90;;;2.47;;
483;SDS011;228;48.922;12.198;2023-09-19T20:43:03;3.03;;;2.40;;
483;SDS011;228;48.922;12.198;2023-09-19T20:45:29;2.30;;;2.10;;
483;SDS011;228;48.922;12.198;2023-09-19T20:47:55;3.33;;;2.37;;
483;SDS011;228;48.922;12.198;2023-09-19T20:50:22;4.20;;;2.63;;
483;SDS011;228;48.922;12.198;2023-09-19T20:52:48;3.07;;;2.67;;
483;SDS011;228;48.922;12.198;2023-09-19T20:55:14;8.33;;;2.90;;
483;SDS011;228;48.922;12.198;2023-09-19T20:57:40;3.93;;;2.70;;
483;SDS011;228;48.922;12.198;2023-09-19T21:00:07;3.27;;;2.53;;
483;SDS011;228;48.922;12.198;2023-09-19T21:02:37;3.17;;;2.77;;